Time;durP1;ratioP1;P1;durP2;ratioP2;P2;SDS_P1;SDS_P2;PMS_P1;PMS_P2;Temp;Humidity;BMP_temperature;BMP_pressure;BME280_temperature;BME280_humidity;BME280_pressure;Samples;Min_cycle;Max_cycle;Signal;HPM_P1;HPM_P2
2022/07/26 00:01:58;;;;;;;7.93;1.77;;;;;;;;;;4976627;28;20466;-89
2022/07/26 00:04:25;;;;;;;3.63;1.70;;;22.40;99.90;;;;;;4968507;28;21363;-90
2022/07/26 00:06:50;;;;;;;3.90;2.10;;;22.50;99.90;;;;;;4966082;28;20459;-90
2022/07/26 00:09:16;;;;;;;2.17;1.50;;;24.40;99.90;;;;;;4973413;28;20530;-87
2022/07/26 00:11:41;;;;;;;2.40;2.20;;;22.70;99.90;;;;;;4975714;28;20216;-88
2022/07/26 00:14:08;;;;;;;5.07;2.67;;;23.40;99.90;;;;;;4974673;28;20187;-88
2022/07/26 00:16:34;;;;;;;5.07;1.67;;;22.70;99.90;;;;;;4965357;28;20185;-89
2022/07/26 00:19:01;;;;;;;4.33;1.70;;;22.70;99.90;;;;;;4972813;28;20455;-89
2022/07/26 00:21:27;;;;;;;4.10;1.93;;;22.70;99.90;;;;;;4975005;28;20491;-90
2022/07/26 00:23:53;;;;;;;3.30;1.90;;;;;;;;;;4973724;28;20455;-90
2022/07/26 00:26:19;;;;;;;5.73;1.90;;;;;;;;;;4978393;28;20209;-89
2022/07/26 00:28:45;;;;;;;5.50;2.10;;;;;;;;;;4971458;28;20474;-87
2022/07/26 00:31:11;;;;;;;6.03;1.97;;;22.50;99.90;;;;;;4963164;28;20518;-89
2022/07/26 00:33:38;;;;;;;5.27;2.50;;;;;;;;;;4969221;28;20470;-90
2022/07/26 00:36:04;;;;;;;3.83;2.40;;;22.40;99.90;;;;;;4978190;28;20428;-89
2022/07/26 00:38:30;;;;;;;3.23;2.17;;;;;;;;;;4971679;28;20450;-90
2022/07/26 00:40:56;;;;;;;3.07;1.60;;;;;;;;;;4983319;28;20439;-89
2022/07/26 00:43:22;;;;;;;2.93;1.97;;;;;;;;;;4983158;28;20455;-90
2022/07/26 00:45:49;;;;;;;3.03;2.20;;;;;;;;;;4983390;28;20436;-90
2022/07/26 00:48:15;;;;;;;6.13;2.10;;;;;;;;;;4971239;28;20549;-89
2022/07/26 00:50:41;;;;;;;3.33;1.53;;;22.20;99.90;;;;;;4973397;28;20450;-88
2022/07/26 00:53:06;;;;;;;6.83;1.83;;;23.00;99.90;;;;;;4970380;28;20440;-89
2022/07/26 00:55:32;;;;;;;3.17;1.80;;;22.20;99.90;;;;;;4963917;28;20202;-88
2022/07/26 00:58:00;;;;;;;2.03;1.50;;;22.10;99.90;;;;;;4963055;28;20188;-88
2022/07/26 01:00:27;;;;;;;3.70;1.23;;;22.10;99.90;;;;;;4961138;28;20219;-88
2022/07/26 01:02:54;;;;;;;4.10;1.87;;;24.60;99.90;;;;;;4963291;28;20531;-88
2022/07/26 01:05:21;;;;;;;2.70;1.50;;;22.10;99.90;;;;;;4964236;28;20511;-86
2022/07/26 01:07:48;;;;;;;2.70;1.73;;;22.00;99.90;;;;;;4958025;28;20574;-87
2022/07/26 01:10:13;;;;;;;2.63;2.00;;;22.00;99.90;;;;;;4966631;28;20451;-87
2022/07/26 01:12:42;;;;;;;8.10;2.07;;;22.00;99.90;;;;;;4964064;28;20456;-86
2022/07/26 01:15:10;;;;;;;7.73;2.10;;;22.00;99.90;;;;;;4970981;28;20187;-89
2022/07/26 01:17:35;;;;;;;1.90;1.50;;;22.00;99.90;;;;;;4956498;28;20450;-89
2022/07/26 01:20:01;;;;;;;4.87;2.63;;;22.00;99.90;;;;;;4957438;28;20432;-88
2022/07/26 01:22:27;;;;;;;4.93;1.80;;;21.90;99.90;;;;;;4980138;28;20824;-90
2022/07/26 01:24:52;;;;;;;3.20;2.17;;;23.30;99.90;;;;;;4968231;28;20451;-89
2022/07/26 01:27:18;;;;;;;4.30;1.70;;;22.00;99.90;;;;;;4979095;28;20231;-89
2022/07/26 01:29:44;;;;;;;2.37;1.60;;;22.00;99.90;;;;;;4963500;28;20684;-88
2022/07/26 01:32:09;;;;;;;5.17;2.07;;;22.80;99.90;;;;;;4970251;28;20455;-89
2022/07/26 01:34:35;;;;;;;2.73;1.97;;;22.00;99.90;;;;;;4961501;28;20676;-88
2022/07/26 01:37:01;;;;;;;6.20;1.77;;;22.10;99.90;;;;;;4979187;28;20188;-88
2022/07/26 01:39:26;;;;;;;4.70;2.20;;;21.20;99.90;;;;;;4977148;28;20219;-88
2022/07/26 01:41:53;;;;;;;2.90;2.20;;;;;;;;;;4967305;28;20784;-90
2022/07/26 01:44:19;;;;;;;4.07;2.10;;;;;;;;;;4969794;28;20199;-88
2022/07/26 01:46:44;;;;;;;3.67;1.80;;;21.80;99.90;;;;;;4961416;28;20467;-89
2022/07/26 01:49:10;;;;;;;5.13;1.80;;;;;;;;;;4970450;28;20792;-90
2022/07/26 01:51:38;;;;;;;3.90;2.27;;;;;;;;;;4973243;28;20228;-90
2022/07/26 01:54:04;;;;;;;3.67;2.23;;;22.00;99.90;;;;;;4969902;28;20436;-90
2022/07/26 01:56:29;;;;;;;2.33;2.03;;;;;;;;;;4967447;28;20494;-89
2022/07/26 01:58:55;;;;;;;6.93;2.60;;;21.80;99.90;;;;;;4982695;28;20188;-89
2022/07/26 02:01:23;;;;;;;6.70;1.87;;;;;;;;;;4975958;28;20562;-90
2022/07/26 02:03:49;;;;;;;3.57;1.83;;;;;;;;;;4975439;28;20801;-90
2022/07/26 02:06:15;;;;;;;2.43;2.20;;;;;;;;;;4972576;28;20467;-89
2022/07/26 02:08:41;;;;;;;3.67;1.90;;;;;;;;;;4972195;28;20436;-88
2022/07/26 02:11:07;;;;;;;3.83;1.73;;;;;;;;;;4970705;28;20471;-88
2022/07/26 02:13:37;;;;;;;3.60;2.70;;;21.60;99.90;;;;;;4986477;28;20459;-89
2022/07/26 02:16:05;;;;;;;5.17;2.23;;;21.60;99.90;;;;;;4981949;28;20912;-90
2022/07/26 02:18:35;;;;;;;2.40;2.20;;;21.50;99.90;;;;;;4984511;28;20444;-90
2022/07/26 02:21:01;;;;;;;2.93;1.77;;;21.10;99.90;;;;;;4989592;28;20468;-90
2022/07/26 02:23:27;;;;;;;2.80;1.57;;;;;;;;;;4970873;28;20442;-91
2022/07/26 02:25:53;;;;;;;6.60;2.30;;;21.50;99.90;;;;;;4972457;28;20434;-89
2022/07/26 02:28:20;;;;;;;6.40;2.00;;;21.40;99.90;;;;;;4980299;28;20473;-90
2022/07/26 02:30:46;;;;;;;3.27;1.90;;;21.20;99.90;;;;;;4980180;28;20463;-89
2022/07/26 02:33:12;;;;;;;2.70;1.70;;;;;;;;;;4970367;28;20438;-91
2022/07/26 02:35:38;;;;;;;8.90;2.23;;;;;;;;;;4977074;28;20428;-88
2022/07/26 02:38:10;;;;;;;4.03;1.60;;;21.30;99.90;;;;;;4986806;28;20446;-91
2022/07/26 02:40:37;;;;;;;2.53;1.90;;;;;;;;;;4983461;28;20442;-88
2022/07/26 02:43:08;;;;;;;4.70;1.70;;;;;;;;;;4974295;28;20435;-90
2022/07/26 02:45:34;;;;;;;2.10;1.83;;;;;;;;;;4974907;28;20956;-89
2022/07/26 02:48:01;;;;;;;2.30;1.50;;;;;;;;;;4978205;28;20478;-87
2022/07/26 02:50:28;;;;;;;2.97;1.83;;;20.80;99.90;;;;;;4977550;28;20462;-89
2022/07/26 02:52:54;;;;;;;1.93;1.50;;;;;;;;;;4971754;28;20459;-87
2022/07/26 02:55:22;;;;;;;3.93;2.20;;;20.80;99.90;;;;;;4955417;28;20448;-86
2022/07/26 02:57:49;;;;;;;2.30;1.77;;;20.80;99.90;;;;;;4971272;28;20447;-89
2022/07/26 03:00:19;;;;;;;6.13;1.70;;;20.80;99.90;;;;;;4962971;28;20448;-88
2022/07/26 03:02:47;;;;;;;5.63;1.90;;;20.70;99.90;;;;;;4961665;28;20478;-86
2022/07/26 03:05:13;;;;;;;3.33;1.93;;;20.60;99.90;;;;;;4958800;28;20465;-86
2022/07/26 03:07:39;;;;;;;3.97;1.70;;;20.50;99.90;;;;;;4953305;28;20502;-88
2022/07/26 03:10:05;;;;;;;2.07;1.80;;;20.40;99.90;;;;;;4963756;28;20467;-87
2022/07/26 03:12:31;;;;;;;7.23;2.40;;;20.40;99.90;;;;;;4956028;28;20215;-91
2022/07/26 03:14:56;;;;;;;1.63;1.47;;;20.40;99.90;;;;;;4959532;28;20436;-87
2022/07/26 03:17:22;;;;;;;2.20;1.80;;;20.40;99.90;;;;;;4962732;28;20191;-86
2022/07/26 03:19:48;;;;;;;1.60;1.50;;;20.40;99.90;;;;;;4956759;28;20256;-87
2022/07/26 03:22:13;;;;;;;3.50;1.57;;;20.40;99.90;;;;;;4961916;28;20212;-87
2022/07/26 03:24:39;;;;;;;4.33;2.03;;;;;;;;;;4970411;28;20188;-86
2022/07/26 03:27:05;;;;;;;2.20;1.63;;;20.30;99.90;;;;;;4964517;28;20214;-88
2022/07/26 03:29:30;;;;;;;3.00;1.73;;;20.30;99.90;;;;;;4958527;28;20432;-87
2022/07/26 03:31:56;;;;;;;1.77;1.33;;;20.30;99.90;;;;;;4961672;28;20196;-87
2022/07/26 03:34:22;;;;;;;1.70;1.37;;;21.40;99.90;;;;;;4955032;28;20179;-86
2022/07/26 03:36:47;;;;;;;2.33;1.80;;;20.90;99.90;;;;;;4941693;28;20204;-85
2022/07/26 03:39:13;;;;;;;2.77;1.90;;;21.90;99.90;;;;;;4939664;28;21326;-85
2022/07/26 03:41:38;;;;;;;3.03;2.13;;;20.00;99.90;;;;;;4941799;28;20291;-84
2022/07/26 03:44:04;;;;;;;1.70;1.60;;;20.60;99.90;;;;;;4968992;28;20578;-86
2022/07/26 03:46:30;;;;;;;2.77;2.03;;;19.60;99.90;;;;;;4979122;28;20295;-86
2022/07/26 03:48:55;;;;;;;3.37;2.00;;;20.10;99.90;;;;;;4975640;28;20188;-86
2022/07/26 03:51:21;;;;;;;1.93;1.40;;;20.00;99.90;;;;;;4968656;28;20647;-85
2022/07/26 03:53:47;;;;;;;2.30;1.70;;;;;;;;;;4959659;28;20194;-87
2022/07/26 03:56:27;;;;;;;2.97;1.90;;;20.00;99.90;;;;;;4978769;28;20180;-87
2022/07/26 03:59:10;;;;;;;2.27;1.70;;;20.00;99.90;;;;;;4964695;28;21023;-87
2022/07/26 04:01:40;;;;;;;4.73;1.80;;;20.00;99.90;;;;;;4957308;28;20440;-87
2022/07/26 04:04:08;;;;;;;3.17;2.17;;;20.00;99.90;;;;;;4962345;28;20482;-86
2022/07/26 04:06:33;;;;;;;3.70;2.53;;;20.00;99.90;;;;;;4973716;28;20478;-88
2022/07/26 04:08:59;;;;;;;3.00;1.60;;;20.20;99.90;;;;;;4972309;28;20439;-88
2022/07/26 04:11:25;;;;;;;2.20;1.50;;;20.00;99.90;;;;;;4960407;28;20219;-86
2022/07/26 04:13:50;;;;;;;2.03;1.83;;;20.00;99.90;;;;;;4960322;28;20195;-87
2022/07/26 04:16:16;;;;;;;2.00;1.80;;;19.80;99.90;;;;;;4974744;28;20184;-85
2022/07/26 04:18:41;;;;;;;3.27;1.80;;;19.90;99.90;;;;;;4951728;28;20191;-84
2022/07/26 04:21:07;;;;;;;6.80;1.90;;;19.90;99.90;;;;;;4954235;28;20212;-87
2022/07/26 04:23:32;;;;;;;6.63;2.20;;;19.80;99.90;;;;;;4956343;28;20807;-87
2022/07/26 04:25:58;;;;;;;2.27;1.90;;;19.80;99.90;;;;;;4957073;28;20191;-84
2022/07/26 04:28:27;;;;;;;3.67;2.23;;;;;;;;;;4958956;28;20180;-85
2022/07/26 04:30:54;;;;;;;3.63;1.90;;;19.90;99.90;;;;;;4954240;28;20200;-85
2022/07/26 04:33:19;;;;;;;2.70;1.77;;;19.90;99.90;;;;;;4970220;28;20502;-85
2022/07/26 04:35:45;;;;;;;3.00;2.50;;;;;;;;;;4949926;28;20444;-84
2022/07/26 04:38:11;;;;;;;5.63;2.20;;;20.10;99.90;;;;;;4948631;28;20198;-87
2022/07/26 04:40:37;;;;;;;2.50;2.30;;;20.50;99.90;;;;;;4949852;28;21463;-86
2022/07/26 04:43:03;;;;;;;5.60;3.30;;;21.20;99.90;;;;;;4946019;28;20864;-83
2022/07/26 04:45:29;;;;;;;4.63;2.03;;;21.60;99.90;;;;;;4940191;28;20443;-87
2022/07/26 04:48:10;;;;;;;2.93;1.83;;;21.80;99.90;;;;;;4974267;28;20212;-85
2022/07/26 04:50:35;;;;;;;3.53;1.90;;;21.60;99.90;;;;;;4942330;28;20551;-87
2022/07/26 04:53:01;;;;;;;4.83;1.90;;;21.50;99.90;;;;;;4955617;28;20192;-82
2022/07/26 04:55:27;;;;;;;2.47;2.03;;;21.40;99.90;;;;;;4937859;28;20188;-83
2022/07/26 04:57:53;;;;;;;3.97;2.20;;;21.00;99.90;;;;;;4929124;28;20533;-83
2022/07/26 05:00:22;;;;;;;2.50;1.80;;;20.70;99.90;;;;;;4942214;28;20852;-82
2022/07/26 05:02:49;;;;;;;4.57;2.03;;;20.40;99.90;;;;;;4944942;28;21053;-83
2022/07/26 05:05:17;;;;;;;4.83;2.77;;;20.30;99.90;;;;;;4949878;28;20455;-84
2022/07/26 05:07:45;;;;;;;1.63;1.53;;;20.60;99.90;;;;;;4938097;28;20500;-82
2022/07/26 05:10:11;;;;;;;4.20;1.67;;;22.10;99.90;;;;;;4961991;28;20534;-89
2022/07/26 05:12:37;;;;;;;2.60;2.00;;;23.40;99.90;;;;;;4959192;28;20458;-85
2022/07/26 05:15:04;;;;;;;2.83;1.90;;;23.60;99.90;;;;;;4972408;28;20495;-86
2022/07/26 05:17:29;;;;;;;2.37;1.67;;;24.70;99.90;;;;;;4966512;28;20192;-86
2022/07/26 05:19:55;;;;;;;3.83;1.80;;;24.70;99.90;;;;;;4954623;28;20709;-87
2022/07/26 05:22:20;;;;;;;3.27;2.27;;;25.00;99.90;;;;;;4959007;28;20208;-85
2022/07/26 05:24:46;;;;;;;3.83;1.60;;;26.10;99.90;;;;;;4946913;28;20199;-86
2022/07/26 05:27:12;;;;;;;2.23;1.77;;;25.20;99.90;;;;;;4958932;28;20208;-85
2022/07/26 05:29:37;;;;;;;2.80;1.70;;;25.80;99.90;;;;;;4978964;28;20235;-84
2022/07/26 05:32:03;;;;;;;5.20;2.20;;;26.40;99.90;;;;;;4959925;28;20212;-87
2022/07/26 05:34:28;;;;;;;2.63;1.40;;;28.10;99.90;;;;;;4951590;28;20235;-86
2022/07/26 05:36:54;;;;;;;4.10;2.20;;;28.40;99.90;;;;;;4952348;28;20965;-85
2022/07/26 05:39:19;;;;;;;4.03;1.93;;;28.20;99.90;;;;;;4945646;28;21343;-85
2022/07/26 05:41:45;;;;;;;2.60;1.80;;;28.60;99.90;;;;;;4954660;28;20557;-85
2022/07/26 05:44:10;;;;;;;4.53;2.13;;;28.60;99.90;;;;;;4963633;28;20186;-84
2022/07/26 05:46:36;;;;;;;2.97;2.20;;;28.90;99.90;;;;;;4951794;28;20249;-87
2022/07/26 05:49:05;;;;;;;5.60;2.00;;;28.30;99.90;;;;;;4960626;28;20190;-88
2022/07/26 05:51:32;;;;;;;4.83;1.80;;;29.00;99.30;;;;;;4942568;28;20841;-85
2022/07/26 05:53:57;;;;;;;2.70;1.97;;;28.90;97.70;;;;;;4951078;28;20482;-87
2022/07/26 05:56:23;;;;;;;3.57;2.00;;;27.20;98.50;;;;;;4956839;28;20488;-83
2022/07/26 05:58:49;;;;;;;2.97;2.10;;;27.00;99.60;;;;;;4963256;28;20188;-87
2022/07/26 06:01:14;;;;;;;5.13;2.33;;;27.30;99.90;;;;;;4960192;28;20777;-88
2022/07/26 06:03:40;;;;;;;4.40;2.07;;;26.40;99.90;;;;;;4965733;28;20279;-87
2022/07/26 06:06:06;;;;;;;3.37;2.03;;;26.60;99.90;;;;;;4962033;28;20227;-89
2022/07/26 06:08:32;;;;;;;5.33;2.13;;;27.70;99.70;;;;;;4957901;28;20186;-89
2022/07/26 06:10:57;;;;;;;5.43;2.50;;;28.50;97.90;;;;;;4962779;28;20217;-88
2022/07/26 06:13:24;;;;;;;3.57;1.90;;;;;;;;;;4964337;28;20892;-89
2022/07/26 06:15:50;;;;;;;3.90;1.97;;;27.40;99.90;;;;;;4971006;28;20185;-89
2022/07/26 06:18:16;;;;;;;2.57;2.10;;;28.10;97.30;;;;;;4965987;28;20476;-89
2022/07/26 06:20:44;;;;;;;4.30;2.40;;;27.20;98.80;;;;;;4963797;28;20434;-88
2022/07/26 06:23:09;;;;;;;4.53;2.07;;;27.40;99.20;;;;;;4953869;28;20196;-87
2022/07/26 06:25:38;;;;;;;2.67;1.53;;;28.60;97.70;;;;;;4955277;28;20436;-89
2022/07/26 06:28:07;;;;;;;2.03;1.70;;;31.70;93.90;;;;;;4965025;28;20206;-90
2022/07/26 06:30:33;;;;;;;3.40;1.47;;;31.10;92.10;;;;;;4973474;28;20476;-89
2022/07/26 06:32:59;;;;;;;2.43;1.63;;;30.20;89.80;;;;;;4963926;28;20435;-88
2022/07/26 06:35:29;;;;;;;7.97;1.97;;;30.50;91.00;;;;;;4956865;28;20816;-88
2022/07/26 06:38:06;;;;;;;6.00;1.73;;;29.30;90.40;;;;;;4963680;28;20199;-88
2022/07/26 06:40:32;;;;;;;2.53;1.70;;;30.30;90.80;;;;;;4962467;28;20447;-90
2022/07/26 06:42:58;;;;;;;1.90;1.70;;;29.90;86.20;;;;;;4974123;28;20472;-88
2022/07/26 06:45:24;;;;;;;2.90;1.60;;;30.00;88.60;;;;;;4978664;28;20961;-90
2022/07/26 06:47:49;;;;;;;2.13;1.70;;;30.60;87.30;;;;;;4964044;28;20463;-89
2022/07/26 06:50:15;;;;;;;2.80;1.53;;;30.00;82.00;;;;;;4973385;28;20739;-89
2022/07/26 06:52:41;;;;;;;1.97;1.80;;;30.70;85.50;;;;;;4955408;28;20215;-88
2022/07/26 06:55:07;;;;;;;7.67;1.50;;;30.60;82.20;;;;;;4957049;28;20178;-89
2022/07/26 06:57:34;;;;;;;3.83;1.60;;;30.40;76.70;;;;;;4962049;28;20233;-88
2022/07/26 06:59:59;;;;;;;5.97;1.60;;;29.70;80.20;;;;;;4960978;28;20791;-89
2022/07/26 07:02:25;;;;;;;4.73;2.03;;;28.20;81.40;;;;;;4954565;28;21116;-89
2022/07/26 07:04:54;;;;;;;2.73;1.60;;;29.00;86.20;;;;;;4989562;28;20225;-86
2022/07/26 07:07:19;;;;;;;4.50;1.77;;;29.30;81.50;;;;;;4976333;28;20238;-89
2022/07/26 07:09:45;;;;;;;3.77;1.57;;;29.30;82.40;;;;;;4964595;28;20452;-89
2022/07/26 07:12:10;;;;;;;3.50;1.80;;;31.80;79.80;;;;;;4969413;28;21066;-87
2022/07/26 07:14:36;;;;;;;3.27;2.00;;;;;;;;;;4960850;28;20272;-88
2022/07/26 07:17:02;;;;;;;3.47;2.20;;;30.40;73.80;;;;;;4967165;28;20221;-88
2022/07/26 07:19:28;;;;;;;2.40;1.77;;;31.30;71.50;;;;;;4974325;28;20469;-90
2022/07/26 07:21:53;;;;;;;2.97;1.50;;;31.50;72.60;;;;;;4956674;28;20200;-86
2022/07/26 07:24:19;;;;;;;2.83;2.07;;;31.00;73.00;;;;;;4949111;28;20190;-86
2022/07/26 07:26:45;;;;;;;1.93;1.10;;;31.00;71.50;;;;;;4966066;28;20279;-87
2022/07/26 07:29:13;;;;;;;3.80;2.10;;;32.20;72.50;;;;;;4957326;28;20185;-87
2022/07/26 07:31:39;;;;;;;2.90;1.20;;;30.50;71.30;;;;;;4957389;28;20203;-88
2022/07/26 07:34:05;;;;;;;4.50;1.63;;;29.90;69.60;;;;;;4950672;28;20960;-89
2022/07/26 07:36:30;;;;;;;3.20;1.70;;;30.60;73.60;;;;;;4955583;28;20461;-87
2022/07/26 07:38:56;;;;;;;1.90;1.60;;;30.30;72.80;;;;;;4954475;28;20207;-88
2022/07/26 07:41:21;;;;;;;5.77;2.10;;;29.40;73.40;;;;;;4958051;28;20235;-91
2022/07/26 07:43:46;;;;;;;3.97;1.60;;;30.90;72.40;;;;;;4961688;28;20210;-86
2022/07/26 07:46:12;;;;;;;3.70;1.53;;;29.90;72.40;;;;;;4962402;28;20570;-85
2022/07/26 07:48:39;;;;;;;6.00;2.00;;;29.70;71.90;;;;;;4968007;28;20181;-87
2022/07/26 07:51:06;;;;;;;2.20;1.43;;;27.80;76.60;;;;;;4967757;28;20213;-85
2022/07/26 07:53:32;;;;;;;5.30;2.13;;;;;;;;;;4966144;28;20494;-85
2022/07/26 07:55:58;;;;;;;9.30;2.07;;;26.70;85.00;;;;;;4960266;28;20443;-88
2022/07/26 07:58:23;;;;;;;2.13;1.40;;;30.20;85.50;;;;;;4966669;28;20502;-86
2022/07/26 08:00:49;;;;;;;4.20;1.30;;;28.30;72.50;;;;;;4970110;28;22190;-84
2022/07/26 08:03:15;;;;;;;4.33;1.00;;;28.30;73.30;;;;;;4969543;28;20200;-89
2022/07/26 08:05:41;;;;;;;2.27;1.53;;;26.60;71.50;;;;;;4960547;28;20285;-90
2022/07/26 08:08:06;;;;;;;3.43;1.20;;;26.50;77.10;;;;;;4967483;28;20500;-87
2022/07/26 08:10:32;;;;;;;3.87;1.50;;;27.30;72.20;;;;;;4970757;28;20203;-87
2022/07/26 08:12:58;;;;;;;1.77;1.20;;;26.90;74.50;;;;;;4969643;28;20226;-85
2022/07/26 08:15:23;;;;;;;2.13;1.50;;;28.00;74.50;;;;;;4964972;28;20189;-86
2022/07/26 08:17:49;;;;;;;3.40;1.43;;;26.70;71.50;;;;;;4968827;28;20202;-85
2022/07/26 08:20:15;;;;;;;3.30;1.60;;;26.70;73.30;;;;;;4981201;28;20191;-85
2022/07/26 08:22:40;;;;;;;1.60;1.07;;;26.30;74.80;;;;;;4956791;28;20467;-87
2022/07/26 08:25:07;;;;;;;3.10;1.27;;;26.40;73.80;;;;;;4956279;28;20194;-88
2022/07/26 08:27:32;;;;;;;3.03;1.47;;;26.40;73.70;;;;;;4960901;28;20218;-86
2022/07/26 08:29:58;;;;;;;3.27;1.23;;;26.40;76.50;;;;;;4971010;28;20455;-89
2022/07/26 08:32:23;;;;;;;3.40;1.27;;;27.50;76.20;;;;;;4966232;28;20206;-85
2022/07/26 08:34:49;;;;;;;1.13;1.00;;;26.60;71.60;;;;;;4959267;28;20600;-86
2022/07/26 08:37:14;;;;;;;2.03;1.10;;;26.60;72.30;;;;;;4967360;28;20842;-86
2022/07/26 08:39:40;;;;;;;2.70;1.40;;;26.40;73.00;;;;;;4955583;28;20206;-83
2022/07/26 08:42:15;;;;;;;1.40;1.00;;;27.20;72.80;;;;;;4977424;28;20209;-85
2022/07/26 08:44:45;;;;;;;5.50;1.40;;;27.20;73.20;;;;;;4956836;28;20718;-87
2022/07/26 08:47:16;;;;;;;3.10;1.30;;;26.90;72.00;;;;;;4957937;28;21375;-86
2022/07/26 08:49:42;;;;;;;3.60;1.30;;;27.90;73.10;;;;;;4981544;28;20443;-89
2022/07/26 08:52:09;;;;;;;5.37;1.07;;;27.40;72.10;;;;;;4965793;28;20457;-85
2022/07/26 08:54:34;;;;;;;2.97;1.33;;;27.30;71.80;;;;;;4968035;28;20219;-87
2022/07/26 08:57:00;;;;;;;2.43;1.73;;;26.90;72.60;;;;;;4957923;28;20500;-85
2022/07/26 08:59:26;;;;;;;1.70;0.97;;;26.50;74.30;;;;;;4958923;28;20187;-86
2022/07/26 09:02:00;;;;;;;3.13;1.40;;;26.90;76.40;;;;;;4954817;28;20548;-87
2022/07/26 09:04:29;;;;;;;5.70;1.87;;;26.70;75.30;;;;;;4957941;28;20202;-87
2022/07/26 09:07:04;;;;;;;2.73;1.53;;;27.10;74.60;;;;;;4967123;28;20467;-86
2022/07/26 09:09:31;;;;;;;5.03;1.40;;;27.70;73.40;;;;;;4965367;28;20440;-86
2022/07/26 09:11:58;;;;;;;3.13;1.23;;;29.00;72.10;;;;;;4958455;28;20560;-88
2022/07/26 09:14:36;;;;;;;3.67;1.20;;;27.20;73.30;;;;;;4959902;28;20456;-86
2022/07/26 09:17:02;;;;;;;2.43;1.10;;;27.00;74.90;;;;;;4956933;28;21136;-88
2022/07/26 09:19:28;;;;;;;5.90;2.03;;;26.90;76.20;;;;;;4961385;28;20474;-86
2022/07/26 09:21:56;;;;;;;3.47;1.50;;;27.30;75.70;;;;;;4959290;28;21574;-88
2022/07/26 09:24:36;;;;;;;4.27;2.00;;;27.90;75.20;;;;;;4950165;28;20187;-86
2022/07/26 09:27:07;;;;;;;2.73;1.60;;;27.00;74.90;;;;;;4969408;28;20509;-87
2022/07/26 09:29:48;;;;;;;1.53;1.27;;;25.90;78.00;;;;;;4945912;28;20436;-87
2022/07/26 09:32:23;;;;;;;6.20;1.90;;;24.50;81.40;;;;;;4964923;28;20459;-87
2022/07/26 09:34:55;;;;;;;2.37;1.57;;;24.90;84.20;;;;;;4962500;28;20439;-86
2022/07/26 09:37:53;;;;;;;3.03;1.63;;;25.00;82.60;;;;;;4966031;28;20443;-88
2022/07/26 09:40:19;;;;;;;4.20;2.17;;;25.10;84.60;;;;;;4978595;28;21045;-86
2022/07/26 09:42:55;;;;;;;3.10;2.10;;;25.10;82.90;;;;;;4954259;28;20474;-88
2022/07/26 09:45:21;;;;;;;2.03;1.70;;;25.80;82.10;;;;;;4950951;28;20192;-86
2022/07/26 09:47:47;;;;;;;3.47;1.53;;;25.80;80.70;;;;;;4954454;28;20587;-88
2022/07/26 09:50:14;;;;;;;6.57;1.27;;;27.50;80.30;;;;;;4964409;28;20551;-87
2022/07/26 09:52:39;;;;;;;1.40;1.20;;;26.90;77.10;;;;;;4952688;28;20202;-86
2022/07/26 09:55:07;;;;;;;2.60;1.87;;;25.30;79.80;;;;;;4978257;28;20443;-85
2022/07/26 09:57:34;;;;;;;2.80;1.70;;;25.10;81.90;;;;;;4986112;28;20910;-86
2022/07/26 10:00:09;;;;;;;3.03;1.63;;;24.80;85.70;;;;;;4987229;28;20439;-85
2022/07/26 10:02:34;;;;;;;6.73;2.57;;;25.10;84.90;;;;;;4977538;28;20624;-89
2022/07/26 10:05:00;;;;;;;1.60;1.50;;;;;;;;;;4979056;28;20507;-87
2022/07/26 10:07:26;;;;;;;4.23;1.60;;;24.50;80.30;;;;;;4993212;28;20272;-84
2022/07/26 10:10:00;;;;;;;4.43;1.23;;;25.10;86.20;;;;;;4961807;28;20459;-86
2022/07/26 10:12:30;;;;;;;3.03;1.60;;;24.60;85.70;;;;;;4967804;28;20276;-88
2022/07/26 10:14:55;;;;;;;2.70;1.67;;;28.60;87.70;;;;;;4962284;28;20521;-89
2022/07/26 10:17:28;;;;;;;3.03;1.80;;;28.00;80.40;;;;;;4965741;28;20470;-84
2022/07/26 10:19:56;;;;;;;2.43;1.60;;;26.60;78.10;;;;;;4959932;28;20446;-85
2022/07/26 10:22:29;;;;;;;1.70;1.43;;;25.40;80.40;;;;;;4963459;28;20470;-88
2022/07/26 10:24:55;;;;;;;3.13;1.20;;;25.00;83.00;;;;;;4968003;28;20448;-86
2022/07/26 10:27:41;;;;;;;3.43;1.37;;;24.40;83.40;;;;;;4953757;28;20505;-86
2022/07/26 10:30:20;;;;;;;2.03;1.50;;;24.70;84.90;;;;;;4969818;28;20436;-87
2022/07/26 10:33:09;;;;;;;3.03;1.33;;;24.40;83.30;;;;;;4967746;28;20456;-86
2022/07/26 10:35:52;;;;;;;2.20;1.27;;;25.30;84.00;;;;;;4971500;28;20469;-88
2022/07/26 10:38:21;;;;;;;3.10;1.33;;;25.90;79.90;;;;;;4953582;28;20442;-87
2022/07/26 10:40:56;;;;;;;2.53;1.37;;;24.90;82.60;;;;;;4963027;28;20447;-89
2022/07/26 10:43:23;;;;;;;2.30;1.40;;;25.10;86.20;;;;;;4973041;28;20461;-89
2022/07/26 10:46:19;;;;;;;1.87;1.30;;;24.50;87.50;;;;;;4959879;28;20447;-85
2022/07/26 10:48:54;;;;;;;1.23;1.00;;;24.70;82.00;;;;;;4958904;28;20458;-86
2022/07/26 10:51:30;;;;;;;5.57;1.93;;;25.10;84.70;;;;;;4962997;28;20538;-87
2022/07/26 10:54:07;;;;;;;2.07;1.20;;;25.60;82.90;;;;;;4953672;28;20443;-85
2022/07/26 10:56:33;;;;;;;3.83;1.40;;;25.30;82.80;;;;;;4957889;28;20479;-87
2022/07/26 10:58:59;;;;;;;1.73;1.30;;;25.00;80.50;;;;;;4961033;28;20799;-88
2022/07/26 11:01:39;;;;;;;1.57;1.20;;;24.30;81.50;;;;;;4966090;28;20200;-86
2022/07/26 11:04:06;;;;;;;5.33;1.50;;;24.00;85.20;;;;;;4969463;28;20180;-86
2022/07/26 11:06:31;;;;;;;3.17;1.40;;;24.10;82.80;;;;;;4963194;28;20467;-84
2022/07/26 11:08:57;;;;;;;3.30;1.53;;;23.80;84.20;;;;;;4962161;28;21295;-88
2022/07/26 11:11:31;;;;;;;0.80;0.73;;;23.80;84.60;;;;;;4964107;28;20283;-86
2022/07/26 11:14:04;;;;;;;2.23;1.10;;;24.00;80.40;;;;;;4956456;28;21030;-84
2022/07/26 11:16:40;;;;;;;2.37;1.07;;;24.60;81.10;;;;;;4968670;28;20443;-88
2022/07/26 11:19:16;;;;;;;1.47;1.30;;;25.00;80.60;;;;;;4953848;28;21083;-84
2022/07/26 11:21:44;;;;;;;1.70;1.60;;;26.60;79.20;;;;;;4970802;28;20463;-86
2022/07/26 11:24:09;;;;;;;1.57;1.10;;;25.20;76.50;;;;;;4959626;28;20439;-86
2022/07/26 11:26:45;;;;;;;5.00;1.77;;;25.50;77.50;;;;;;4975079;28;20467;-86
2022/07/26 11:29:12;;;;;;;2.60;1.17;;;25.70;74.60;;;;;;4957130;28;20172;-87
2022/07/26 11:31:45;;;;;;;4.00;1.37;;;25.00;73.70;;;;;;4975885;28;20473;-85
2022/07/26 11:34:21;;;;;;;4.60;0.90;;;24.80;77.10;;;;;;4973800;28;21059;-85
2022/07/26 11:36:48;;;;;;;1.67;1.30;;;25.30;76.50;;;;;;4984386;28;20451;-85
2022/07/26 11:39:25;;;;;;;2.50;1.10;;;25.30;76.20;;;;;;4955914;28;20477;-89
2022/07/26 11:41:59;;;;;;;2.50;1.30;;;25.20;75.00;;;;;;4951189;28;20903;-84
2022/07/26 11:44:25;;;;;;;1.50;0.90;;;25.10;75.60;;;;;;4951812;28;20459;-86
2022/07/26 11:46:51;;;;;;;2.30;1.20;;;24.80;75.20;;;;;;4957937;28;20835;-86
2022/07/26 11:49:23;;;;;;;3.60;1.40;;;24.40;75.00;;;;;;4951885;28;20443;-86
2022/07/26 11:51:53;;;;;;;2.63;1.40;;;24.70;77.10;;;;;;4964549;28;20204;-86
2022/07/26 11:54:20;;;;;;;1.20;1.00;;;25.40;75.80;;;;;;4963256;28;20496;-86
2022/07/26 11:56:56;;;;;;;0.83;0.83;;;25.80;74.30;;;;;;4977169;28;20445;-87
2022/07/26 11:59:26;;;;;;;2.00;1.30;;;26.00;73.90;;;;;;4960060;28;20597;-87
2022/07/26 12:01:53;;;;;;;1.77;1.10;;;26.60;70.90;;;;;;4953527;28;20994;-86
2022/07/26 12:04:24;;;;;;;2.20;1.20;;;26.80;71.30;;;;;;4956897;28;20442;-83
2022/07/26 12:06:52;;;;;;;4.03;1.30;;;26.40;69.30;;;;;;4956024;28;20472;-88
2022/07/26 12:09:45;;;;;;;2.20;1.00;;;26.20;71.20;;;;;;4967630;28;20449;-83
2022/07/26 12:12:26;;;;;;;2.40;1.47;;;25.40;72.80;;;;;;4959520;28;20591;-88
2022/07/26 12:14:59;;;;;;;2.33;1.50;;;25.50;74.90;;;;;;4954951;28;20439;-86
2022/07/26 12:17:26;;;;;;;2.30;1.63;;;25.50;75.60;;;;;;4952862;28;20833;-88
2022/07/26 12:19:51;;;;;;;1.10;1.00;;;25.40;74.40;;;;;;4954114;28;20441;-86
2022/07/26 12:22:19;;;;;;;1.63;1.07;;;25.40;74.50;;;;;;4959283;28;20471;-88
2022/07/26 12:24:54;;;;;;;1.63;1.17;;;25.90;74.90;;;;;;4955018;28;20718;-88
2022/07/26 12:27:25;;;;;;;2.13;1.10;;;26.30;74.80;;;;;;4954504;28;20485;-86
2022/07/26 12:30:14;;;;;;;1.60;1.00;;;26.10;71.30;;;;;;4968728;28;20895;-84
2022/07/26 12:32:43;;;;;;;1.33;1.07;;;25.20;70.50;;;;;;4953494;28;20462;-86
2022/07/26 12:35:13;;;;;;;1.70;1.00;;;24.90;71.00;;;;;;4954447;28;20675;-86
2022/07/26 12:37:44;;;;;;;2.80;1.30;;;25.10;70.20;;;;;;4955612;28;20436;-84
2022/07/26 12:40:15;;;;;;;2.03;1.40;;;25.30;69.80;;;;;;4955967;28;20517;-86
2022/07/26 12:42:51;;;;;;;2.40;1.27;;;24.80;70.80;;;;;;4962943;28;20500;-88
2022/07/26 12:45:19;;;;;;;3.30;1.00;;;25.10;74.10;;;;;;4960208;28;20512;-87
2022/07/26 12:47:48;;;;;;;1.47;1.03;;;25.30;72.20;;;;;;4951141;28;20474;-85
2022/07/26 12:50:15;;;;;;;1.13;1.00;;;25.40;73.50;;;;;;4955981;28;20444;-86
2022/07/26 12:52:42;;;;;;;1.80;1.00;;;25.40;71.50;;;;;;4954442;28;20803;-83
2022/07/26 12:55:11;;;;;;;1.50;1.07;;;25.40;72.10;;;;;;4952686;28;21114;-86
2022/07/26 12:57:36;;;;;;;1.10;0.93;;;25.20;69.80;;;;;;4971559;28;20462;-85
2022/07/26 13:00:04;;;;;;;2.20;1.10;;;25.60;71.40;;;;;;4969347;28;22555;-84
2022/07/26 13:02:29;;;;;;;1.77;1.23;;;26.10;68.30;;;;;;4964691;28;20235;-83